Time;durP1;ratioP1;P1;durP2;ratioP2;P2;SDS_P1;SDS_P2;PMS_P1;PMS_P2;Temp;Humidity;BMP_temperature;BMP_pressure;BME280_temperature;BME280_humidity;BME280_pressure;Samples;Min_cycle;Max_cycle;Signal;HPM_P1;HPM_P2
2022/08/27 00:00:08;;;;;;;4.22;1.67;;;;;;;;;;5034503;28;20065;-69
2022/08/27 00:02:34;;;;;;;3.92;1.80;;;;;;;;;;5034464;28;20064;-69
2022/08/27 00:05:01;;;;;;;1.98;1.55;;;;;;;;;;5034203;28;20053;-69
2022/08/27 00:07:27;;;;;;;4.90;1.90;;;;;;;;;;5034204;28;20046;-69
2022/08/27 00:09:53;;;;;;;1.98;1.50;;;;;;;;;;5034344;28;20042;-69
2022/08/27 00:12:20;;;;;;;2.40;1.50;;;;;;;;;;5034077;28;20473;-69
2022/08/27 00:14:46;;;;;;;2.45;1.38;;;;;;;;;;5034538;28;20037;-69
2022/08/27 00:17:12;;;;;;;1.83;1.55;;;;;;;;;;5034442;28;20112;-69
2022/08/27 00:19:38;;;;;;;2.63;1.60;;;;;;;;;;5034509;28;20033;-69
2022/08/27 00:22:05;;;;;;;5.30;1.70;;;;;;;;;;5034139;28;20037;-69
2022/08/27 00:24:31;;;;;;;3.72;1.50;;;;;;;;;;5033775;28;20041;-69
2022/08/27 00:26:58;;;;;;;1.92;1.77;;;;;;;;;;5033723;28;20073;-69
2022/08/27 00:29:25;;;;;;;4.80;1.40;;;;;;;;;;5034115;28;20037;-69
2022/08/27 00:31:51;;;;;;;2.20;1.85;;;;;;;;;;5033736;28;20079;-69
2022/08/27 00:34:18;;;;;;;2.55;1.52;;;;;;;;;;5034376;28;20046;-69
2022/08/27 00:36:44;;;;;;;2.70;1.70;;;;;;;;;;5034059;28;20045;-69
2022/08/27 00:39:10;;;;;;;5.97;1.92;;;;;;;;;;5034625;28;20124;-69
2022/08/27 00:41:38;;;;;;;1.73;1.63;;;;;;;;;;5034037;28;20512;-69
2022/08/27 00:44:05;;;;;;;2.42;1.60;;;;;;;;;;5033448;28;20033;-69
2022/08/27 00:46:39;;;;;;;2.55;1.92;;;;;;;;;;5035706;28;20052;-69
2022/08/27 00:49:11;;;;;;;1.55;1.30;;;;;;;;;;5038253;28;20167;-69
2022/08/27 00:51:37;;;;;;;2.60;1.50;;;;;;;;;;5037685;28;20559;-69
2022/08/27 00:54:04;;;;;;;2.50;1.80;;;;;;;;;;5037365;28;20060;-69
2022/08/27 00:56:33;;;;;;;3.42;1.60;;;;;;;;;;5037892;28;20071;-69
2022/08/27 00:59:01;;;;;;;4.35;1.67;;;;;;;;;;5037684;28;20115;-69
2022/08/27 01:01:29;;;;;;;3.55;1.67;;;;;;;;;;5038583;28;20125;-69
2022/08/27 01:03:56;;;;;;;3.38;2.00;;;;;;;;;;5038138;28;20065;-69
2022/08/27 01:06:24;;;;;;;1.63;1.40;;;;;;;;;;5037398;28;20045;-69
2022/08/27 01:09:10;;;;;;;4.40;1.63;;;;;;;;;;5037490;28;20075;-69
2022/08/27 01:11:36;;;;;;;2.33;1.50;;;;;;;;;;5037308;28;20041;-69
2022/08/27 01:14:03;;;;;;;2.88;1.63;;;;;;;;;;5037358;28;20039;-69
2022/08/27 01:16:33;;;;;;;3.67;1.70;;;;;;;;;;5037322;28;20114;-69
2022/08/27 01:18:59;;;;;;;2.85;1.60;;;;;;;;;;5037303;28;20049;-69
2022/08/27 01:21:35;;;;;;;4.20;1.95;;;;;;;;;;5037389;28;20037;-69
2022/08/27 01:24:20;;;;;;;3.88;1.77;;;;;;;;;;5037685;28;20045;-69
2022/08/27 01:26:46;;;;;;;3.33;2.08;;;;;;;;;;5037386;28;20037;-69
2022/08/27 01:29:12;;;;;;;4.22;1.58;;;;;;;;;;5036856;28;20369;-69
2022/08/27 01:31:38;;;;;;;1.90;1.50;;;;;;;;;;5037262;28;20049;-69
2022/08/27 01:34:05;;;;;;;1.70;1.58;;;;;;;;;;5036924;28;20392;-69
2022/08/27 01:36:32;;;;;;;4.97;1.67;;;;;;;;;;5037208;28;20037;-69
2022/08/27 01:38:58;;;;;;;1.95;1.65;;;;;;;;;;5036848;28;20499;-69
2022/08/27 01:41:25;;;;;;;3.70;1.77;;;;;;;;;;5037078;28;20041;-69
2022/08/27 01:43:51;;;;;;;2.83;2.53;;;;;;;;;;5036939;28;20046;-69
2022/08/27 01:46:25;;;;;;;3.58;2.10;;;;;;;;;;5036835;28;20045;-69
2022/08/27 01:48:51;;;;;;;2.25;1.65;;;;;;;;;;5037798;28;20042;-69
2022/08/27 01:51:18;;;;;;;2.50;1.83;;;;;;;;;;5037157;28;20041;-69
2022/08/27 01:53:44;;;;;;;1.67;1.58;;;;;;;;;;5036883;28;20052;-69
2022/08/27 01:56:10;;;;;;;4.18;1.70;;;;;;;;;;5036726;28;20037;-69
2022/08/27 01:58:37;;;;;;;2.83;1.73;;;;;;;;;;5036332;28;20054;-69
2022/08/27 02:01:07;;;;;;;2.72;1.80;;;;;;;;;;5036367;28;20094;-69
2022/08/27 02:03:35;;;;;;;4.28;1.80;;;;;;;;;;5036604;28;20053;-69
2022/08/27 02:06:04;;;;;;;2.35;1.50;;;;;;;;;;5036233;28;20049;-69
2022/08/27 02:08:31;;;;;;;1.83;1.73;;;;;;;;;;5036312;28;20116;-69
2022/08/27 02:10:57;;;;;;;4.10;1.70;;;;;;;;;;5036541;28;20037;-69
2022/08/27 02:13:23;;;;;;;3.22;1.80;;;;;;;;;;5036408;28;20070;-69
2022/08/27 02:15:49;;;;;;;4.05;1.77;;;;;;;;;;5036715;28;20132;-69
2022/08/27 02:18:15;;;;;;;2.42;1.95;;;;;;;;;;5036429;28;20515;-69
2022/08/27 02:20:43;;;;;;;3.05;2.35;;;;;;;;;;5035992;28;20056;-69
2022/08/27 02:23:10;;;;;;;4.55;2.20;;;;;;;;;;5018559;28;20385;-69
2022/08/27 02:25:36;;;;;;;4.43;1.85;;;;;;;;;;5036381;28;20068;-69
2022/08/27 02:28:03;;;;;;;3.95;1.90;;;;;;;;;;5036226;28;20045;-69
2022/08/27 02:30:33;;;;;;;3.35;1.77;;;;;;;;;;5036369;28;20038;-69
2022/08/27 02:33:00;;;;;;;3.42;2.00;;;;;;;;;;5036741;28;20049;-69
2022/08/27 02:35:26;;;;;;;2.95;1.98;;;;;;;;;;5036031;28;20129;-69
2022/08/27 02:37:52;;;;;;;3.97;2.15;;;;;;;;;;5036345;28;20116;-69
2022/08/27 02:40:20;;;;;;;2.38;1.83;;;;;;;;;;5035646;28;20116;-69
2022/08/27 02:42:46;;;;;;;4.63;2.10;;;;;;;;;;5035594;28;20041;-69
2022/08/27 02:45:13;;;;;;;4.05;2.53;;;;;;;;;;5036567;28;20207;-69
2022/08/27 02:47:40;;;;;;;3.05;1.70;;;;;;;;;;5035874;28;20504;-69
2022/08/27 02:50:07;;;;;;;3.15;2.10;;;;;;;;;;5035675;28;20049;-69
2022/08/27 02:52:33;;;;;;;4.03;2.10;;;;;;;;;;5035359;28;20447;-69
2022/08/27 02:54:59;;;;;;;4.68;2.30;;;;;;;;;;5035973;28;20045;-69
2022/08/27 02:57:26;;;;;;;4.15;2.20;;;;;;;;;;5035086;28;20044;-69
2022/08/27 02:59:52;;;;;;;4.43;1.90;;;;;;;;;;5035388;28;20045;-69
2022/08/27 03:02:19;;;;;;;5.93;2.28;;;;;;;;;;5035015;28;20069;-69
2022/08/27 03:04:45;;;;;;;3.90;1.90;;;;;;;;;;5035716;28;20049;-69
2022/08/27 03:07:11;;;;;;;4.47;1.83;;;;;;;;;;5035245;28;20045;-69
2022/08/27 03:09:38;;;;;;;3.03;1.98;;;;;;;;;;5034347;28;20041;-69
2022/08/27 03:12:04;;;;;;;2.78;2.00;;;;;;;;;;5035160;28;20129;-69
2022/08/27 03:14:31;;;;;;;3.53;2.08;;;;;;;;;;5035002;28;20052;-69
2022/08/27 03:18:17;;;;;;;7.10;2.33;;;;;;;;;;5035624;28;20050;-69
2022/08/27 03:19:47;;;;;;;5.72;2.33;;;;;;;;;;5034369;28;20041;-69
2022/08/27 03:22:13;;;;;;;4.72;2.50;;;;;;;;;;5034850;28;20116;-69
2022/08/27 03:24:39;;;;;;;4.18;2.25;;;;;;;;;;5034729;28;20048;-69
2022/08/27 03:27:06;;;;;;;3.00;2.20;;;;;;;;;;5034917;28;20180;-69
2022/08/27 03:29:33;;;;;;;3.72;2.30;;;;;;;;;;5034543;28;20037;-69
2022/08/27 03:32:00;;;;;;;3.17;2.00;;;;;;;;;;5034726;28;20120;-69
2022/08/27 03:34:26;;;;;;;3.03;1.90;;;;;;;;;;5034379;28;20551;-69
2022/08/27 03:36:52;;;;;;;2.78;1.80;;;;;;;;;;5034780;28;20150;-69
2022/08/27 03:39:19;;;;;;;4.07;2.00;;;;;;;;;;5034730;28;20600;-69
2022/08/27 03:41:45;;;;;;;3.65;2.20;;;;;;;;;;5034698;28;20052;-69
2022/08/27 03:44:11;;;;;;;5.25;2.30;;;;;;;;;;5034092;28;20419;-69
2022/08/27 03:46:37;;;;;;;2.90;1.70;;;;;;;;;;5034295;28;20046;-69
2022/08/27 03:49:04;;;;;;;3.88;2.45;;;;;;;;;;5035207;28;20041;-69
2022/08/27 03:51:30;;;;;;;2.55;2.22;;;;;;;;;;5034799;28;20041;-69
2022/08/27 03:53:56;;;;;;;1.98;1.77;;;;;;;;;;5034574;28;20091;-69
2022/08/27 03:56:22;;;;;;;2.97;2.20;;;;;;;;;;5034087;28;20049;-69
2022/08/27 03:58:48;;;;;;;3.45;2.45;;;;;;;;;;5034909;28;20089;-69
2022/08/27 04:01:16;;;;;;;2.50;2.25;;;;;;;;;;5034674;28;20056;-69
2022/08/27 04:03:43;;;;;;;4.20;2.92;;;;;;;;;;5034645;28;20037;-69
2022/08/27 04:06:09;;;;;;;2.35;1.95;;;;;;;;;;5034312;28;20515;-69
2022/08/27 04:08:35;;;;;;;3.83;2.10;;;;;;;;;;5034707;28;20042;-69
2022/08/27 04:11:05;;;;;;;2.22;2.03;;;;;;;;;;5034687;28;20095;-69
2022/08/27 04:13:31;;;;;;;2.78;2.22;;;;;;;;;;5034153;28;20440;-69
2022/08/27 04:15:57;;;;;;;3.03;2.00;;;;;;;;;;5034892;28;20139;-69
2022/08/27 04:18:23;;;;;;;2.28;2.08;;;;;;;;;;5034242;28;20499;-69
2022/08/27 04:20:51;;;;;;;2.30;1.80;;;;;;;;;;5035021;28;20384;-69
2022/08/27 04:23:17;;;;;;;2.17;1.98;;;;;;;;;;5038661;28;20112;-69
2022/08/27 04:25:44;;;;;;;2.83;2.00;;;;;;;;;;5038704;28;20053;-69
2022/08/27 04:28:11;;;;;;;2.50;1.90;;;;;;;;;;5038087;28;20077;-69
2022/08/27 04:30:43;;;;;;;4.28;2.08;;;;;;;;;;5038233;28;20043;-69
2022/08/27 04:33:09;;;;;;;3.40;2.15;;;;;;;;;;5037717;28;20484;-69
2022/08/27 04:35:35;;;;;;;4.60;2.38;;;;;;;;;;5038031;28;20049;-69
2022/08/27 04:38:03;;;;;;;2.83;2.15;;;;;;;;;;5037828;28;20485;-69
2022/08/27 04:41:18;;;;;;;4.78;2.38;;;;;;;;;;5038130;28;20037;-69
2022/08/27 04:43:15;;;;;;;6.47;2.33;;;;;;;;;;5037192;28;20132;-69
2022/08/27 04:45:45;;;;;;;3.75;2.35;;;;;;;;;;5037724;28;20052;-69
2022/08/27 04:48:11;;;;;;;2.30;2.10;;;;;;;;;;5037858;28;20057;-69
2022/08/27 04:50:41;;;;;;;3.55;2.53;;;;;;;;;;5037668;28;20132;-69
2022/08/27 04:53:08;;;;;;;5.03;2.00;;;;;;;;;;5037388;28;20124;-69
2022/08/27 04:55:39;;;;;;;2.75;2.33;;;;;;;;;;5037360;28;20558;-69
2022/08/27 04:58:06;;;;;;;3.78;2.40;;;;;;;;;;5037322;28;20136;-69
2022/08/27 05:00:32;;;;;;;4.18;2.17;;;;;;;;;;5038155;28;20033;-69
2022/08/27 05:02:58;;;;;;;2.35;2.15;;;;;;;;;;5037462;28;20088;-69
2022/08/27 05:05:27;;;;;;;2.65;2.10;;;;;;;;;;5037953;28;20380;-69
2022/08/27 05:07:53;;;;;;;2.85;2.38;;;;;;;;;;5037766;28;20056;-69
2022/08/27 05:10:19;;;;;;;4.22;2.45;;;;;;;;;;5037356;28;20034;-69
2022/08/27 05:12:45;;;;;;;2.50;2.00;;;;;;;;;;5037773;28;20045;-69
2022/08/27 05:15:11;;;;;;;3.50;2.00;;;;;;;;;;5037353;28;20128;-69
2022/08/27 05:17:37;;;;;;;3.03;2.30;;;;;;;;;;5037784;28;20045;-69
2022/08/27 05:20:04;;;;;;;5.38;2.70;;;;;;;;;;5037163;28;20642;-69
2022/08/27 05:22:30;;;;;;;4.57;3.53;;;;;;;;;;5037156;28;20041;-69
2022/08/27 05:24:56;;;;;;;5.88;2.55;;;;;;;;;;5037911;28;20103;-69
2022/08/27 05:27:23;;;;;;;4.00;3.03;;;;;;;;;;5037711;28;20116;-69
2022/08/27 05:29:49;;;;;;;4.60;2.50;;;;;;;;;;5037498;28;20499;-69
2022/08/27 05:32:15;;;;;;;3.53;2.60;;;;;;;;;;5036643;28;20045;-69
2022/08/27 05:34:42;;;;;;;3.25;2.15;;;;;;;;;;5036812;28;20435;-69
2022/08/27 05:37:08;;;;;;;3.90;2.20;;;;;;;;;;5036859;28;20042;-69
2022/08/27 05:39:35;;;;;;;2.20;2.10;;;;;;;;;;5037688;28;20038;-69
2022/08/27 05:42:01;;;;;;;2.40;2.20;;;;;;;;;;5036534;28;20037;-69
2022/08/27 05:44:27;;;;;;;3.35;2.00;;;;;;;;;;5036933;28;20553;-69
2022/08/27 05:46:54;;;;;;;2.63;1.92;;;;;;;;;;5037240;28;20562;-69
2022/08/27 05:49:20;;;;;;;2.03;1.83;;;;;;;;;;5037260;28;20129;-69
2022/08/27 05:51:47;;;;;;;2.72;2.10;;;;;;;;;;5036640;28;20052;-69
2022/08/27 05:54:17;;;;;;;2.67;1.92;;;;;;;;;;5036800;28;20117;-69
2022/08/27 05:56:44;;;;;;;3.90;2.25;;;;;;;;;;5036834;28;20500;-69
2022/08/27 06:01:55;;;;;;;2.45;1.98;;;;;;;;;;5036530;28;20155;-69
2022/08/27 06:04:22;;;;;;;4.13;1.52;;;;;;;;;;5036619;28;20049;-69
2022/08/27 06:06:48;;;;;;;1.60;1.48;;;;;;;;;;5036575;28;20037;-69
2022/08/27 06:09:16;;;;;;;1.60;1.50;;;;;;;;;;5036303;28;20041;-69
2022/08/27 06:11:42;;;;;;;2.13;1.63;;;;;;;;;;5035906;28;20033;-69
2022/08/27 06:14:09;;;;;;;2.78;1.70;;;;;;;;;;5035660;28;20048;-69
2022/08/27 06:16:36;;;;;;;2.58;1.90;;;;;;;;;;5036097;28;20133;-69
2022/08/27 06:19:04;;;;;;;2.15;1.80;;;;;;;;;;5035568;28;20504;-69
2022/08/27 06:21:30;;;;;;;2.28;1.80;;;;;;;;;;5035980;28;20056;-69
2022/08/27 06:23:56;;;;;;;4.35;1.80;;;;;;;;;;5036051;28;20065;-69
2022/08/27 06:26:23;;;;;;;1.70;1.60;;;;;;;;;;5035873;28;20041;-69
2022/08/27 06:28:49;;;;;;;3.00;1.80;;;;;;;;;;5035332;28;20045;-69
2022/08/27 06:31:15;;;;;;;1.55;1.40;;;;;;;;;;5036640;28;20033;-69
2022/08/27 06:33:43;;;;;;;2.83;1.75;;;;;;;;;;5036358;28;20033;-69
2022/08/27 06:36:10;;;;;;;2.63;1.75;;;;;;;;;;5036027;28;20099;-69
2022/08/27 06:38:37;;;;;;;3.42;1.67;;;;;;;;;;5036088;28;20041;-69
2022/08/27 06:41:04;;;;;;;3.10;2.33;;;;;;;;;;5035673;28;20120;-69
2022/08/27 06:43:30;;;;;;;2.05;1.70;;;;;;;;;;5035117;28;20055;-69
2022/08/27 06:45:56;;;;;;;5.15;1.60;;;;;;;;;;5035576;28;20059;-69
2022/08/27 06:48:23;;;;;;;3.45;1.73;;;;;;;;;;5036103;28;20049;-69
2022/08/27 06:50:49;;;;;;;3.10;1.67;;;;;;;;;;5035187;28;20033;-69
2022/08/27 06:53:15;;;;;;;1.73;1.63;;;;;;;;;;5035742;28;20052;-69
2022/08/27 06:55:42;;;;;;;2.78;2.03;;;;;;;;;;5035442;28;20041;-69
2022/08/27 06:58:08;;;;;;;3.97;2.00;;;;;;;;;;5035173;28;20056;-69
2022/08/27 07:00:35;;;;;;;2.45;1.77;;;;;;;;;;5035908;28;20038;-69
2022/08/27 07:03:04;;;;;;;2.95;1.98;;;;;;;;;;5035501;28;20132;-69
2022/08/27 07:05:30;;;;;;;3.90;1.90;;;;;;;;;;5035370;28;20132;-69
2022/08/27 07:07:57;;;;;;;3.65;2.03;;;;;;;;;;5036299;28;20117;-69
2022/08/27 07:10:23;;;;;;;1.80;1.63;;;;;;;;;;5035359;28;20042;-69
2022/08/27 07:12:49;;;;;;;2.40;1.77;;;;;;;;;;5035273;28;20041;-69
2022/08/27 07:15:16;;;;;;;2.00;1.88;;;;;;;;;;5035140;28;20041;-69
2022/08/27 07:17:43;;;;;;;2.97;1.70;;;;;;;;;;5035672;28;20045;-69
2022/08/27 07:20:10;;;;;;;6.00;1.90;;;;;;;;;;5035227;28;20064;-69
2022/08/27 07:22:39;;;;;;;3.88;2.30;;;;;;;;;;5035160;28;20140;-69
2022/08/27 07:25:05;;;;;;;6.10;2.42;;;;;;;;;;5034714;28;20496;-69
2022/08/27 07:27:31;;;;;;;4.53;2.25;;;;;;;;;;5034998;28;20052;-69
2022/08/27 07:29:58;;;;;;;5.70;2.35;;;;;;;;;;5034844;28;20033;-69
2022/08/27 07:32:24;;;;;;;5.68;2.47;;;;;;;;;;5035081;28;20072;-69
2022/08/27 07:34:50;;;;;;;2.75;2.20;;;;;;;;;;5034719;28;20044;-69
2022/08/27 07:37:16;;;;;;;3.72;2.22;;;;;;;;;;5035367;28;20038;-69
2022/08/27 07:39:42;;;;;;;3.55;2.13;;;;;;;;;;5034714;28;20056;-69
2022/08/27 07:44:53;;;;;;;2.58;1.80;;;;;;;;;;5034379;28;20047;-69
2022/08/27 07:47:19;;;;;;;2.13;1.90;;;;;;;;;;5035227;28;20050;-69
2022/08/27 07:49:45;;;;;;;2.00;1.70;;;;;;;;;;5035159;28;20049;-69
2022/08/27 07:52:11;;;;;;;4.28;2.00;;;;;;;;;;5035085;28;20095;-69
2022/08/27 07:54:38;;;;;;;2.28;2.10;;;;;;;;;;5034454;28;20566;-69
2022/08/27 07:57:04;;;;;;;4.55;2.30;;;;;;;;;;5034149;28;20488;-69
2022/08/27 07:59:30;;;;;;;3.70;2.03;;;;;;;;;;5035222;28;20133;-69
2022/08/27 08:02:00;;;;;;;3.28;2.28;;;;;;;;;;5034735;28;20064;-69
2022/08/27 08:04:27;;;;;;;4.93;2.45;;;;;;;;;;5034616;28;20037;-69
2022/08/27 08:06:54;;;;;;;2.90;2.35;;;;;;;;;;5034695;28;20087;-69
2022/08/27 08:09:22;;;;;;;2.05;1.90;;;;;;;;;;5034028;28;20034;-69
2022/08/27 08:11:49;;;;;;;4.53;2.30;;;;;;;;;;5034271;28;20040;-69
2022/08/27 08:14:15;;;;;;;6.32;2.17;;;;;;;;;;5034549;28;20037;-69
2022/08/27 08:16:41;;;;;;;4.07;1.92;;;;;;;;;;5034225;28;20124;-69
2022/08/27 08:19:08;;;;;;;3.00;2.25;;;;;;;;;;5034300;28;20045;-69
2022/08/27 08:21:34;;;;;;;4.05;1.98;;;;;;;;;;5034841;28;20037;-69
2022/08/27 08:24:01;;;;;;;3.60;1.98;;;;;;;;;;5034737;28;20034;-69
2022/08/27 08:26:27;;;;;;;3.25;2.42;;;;;;;;;;5034040;28;20042;-69
2022/08/27 08:28:54;;;;;;;5.90;2.10;;;;;;;;;;5034137;28;20050;-69
2022/08/27 08:31:22;;;;;;;2.60;2.15;;;;;;;;;;5033896;28;20037;-69
2022/08/27 08:33:48;;;;;;;3.60;2.38;;;;;;;;;;5034076;28;20073;-69
2022/08/27 08:36:15;;;;;;;2.78;2.33;;;;;;;;;;5034167;28;20069;-69
2022/08/27 08:38:42;;;;;;;5.13;2.13;;;;;;;;;;5033900;28;20496;-69
2022/08/27 08:41:26;;;;;;;3.75;2.22;;;;;;;;;;5034025;28;20034;-69
2022/08/27 08:43:52;;;;;;;3.45;1.92;;;;;;;;;;5033793;28;20051;-69
2022/08/27 08:46:27;;;;;;;3.63;2.15;;;;;;;;;;5033937;28;20120;-69
2022/08/27 08:48:56;;;;;;;4.53;2.35;;;;;;;;;;5034650;28;20049;-69
2022/08/27 08:51:24;;;;;;;3.78;2.17;;;;;;;;;;5033966;28;20127;-69
2022/08/27 08:53:56;;;;;;;2.28;2.08;;;;;;;;;;5033623;28;20037;-69
2022/08/27 08:56:30;;;;;;;4.93;2.08;;;;;;;;;;5033696;28;20041;-69
2022/08/27 08:58:59;;;;;;;2.20;2.00;;;;;;;;;;5033414;28;20068;-69
2022/08/27 09:01:26;;;;;;;5.53;2.15;;;;;;;;;;5034321;28;20046;-69
2022/08/27 09:03:56;;;;;;;2.75;2.17;;;;;;;;;;5033817;28;20064;-69
2022/08/27 09:06:31;;;;;;;4.25;2.47;;;;;;;;;;5033693;28;20141;-69
2022/08/27 09:09:03;;;;;;;4.15;2.20;;;;;;;;;;5036536;28;20052;-69
2022/08/27 09:11:39;;;;;;;4.07;2.30;;;;;;;;;;5037784;28;20124;-69
2022/08/27 09:14:07;;;;;;;5.72;2.42;;;;;;;;;;5037159;28;20049;-69
2022/08/27 09:16:33;;;;;;;4.10;2.67;;;;;;;;;;5037442;28;20071;-69
2022/08/27 09:19:02;;;;;;;7.65;2.22;;;;;;;;;;5037585;28;20492;-69
2022/08/27 09:21:40;;;;;;;2.30;2.08;;;;;;;;;;5037066;28;20034;-69
2022/08/27 09:24:10;;;;;;;2.58;2.10;;;;;;;;;;5036824;28;20559;-69
2022/08/27 09:26:38;;;;;;;4.03;2.03;;;;;;;;;;5037036;28;20053;-69
2022/08/27 09:29:17;;;;;;;4.20;2.30;;;;;;;;;;5037009;28;20045;-69
2022/08/27 09:31:45;;;;;;;4.43;2.05;;;;;;;;;;5036434;28;20045;-69
2022/08/27 09:34:12;;;;;;;2.75;2.13;;;;;;;;;;5036905;28;20506;-69
2022/08/27 09:36:59;;;;;;;4.97;1.80;;;;;;;;;;5036934;28;20079;-69
2022/08/27 09:39:32;;;;;;;4.40;1.70;;;;;;;;;;5037385;28;20095;-69
2022/08/27 09:41:58;;;;;;;3.55;2.10;;;;;;;;;;5036583;28;20039;-69
2022/08/27 09:44:24;;;;;;;4.25;2.42;;;;;;;;;;5036423;28;20045;-69
2022/08/27 09:46:51;;;;;;;3.90;1.80;;;;;;;;;;5036485;28;20053;-69
2022/08/27 09:49:17;;;;;;;4.10;2.38;;;;;;;;;;5036645;28;20072;-69
2022/08/27 09:51:44;;;;;;;4.95;2.38;;;;;;;;;;5036567;28;20510;-69
2022/08/27 09:54:11;;;;;;;3.75;1.95;;;;;;;;;;5036606;28;20037;-69
2022/08/27 09:56:39;;;;;;;5.07;2.25;;;;;;;;;;5036586;28;20041;-69
2022/08/27 09:59:10;;;;;;;5.18;1.80;;;;;;;;;;5035900;28;20611;-69
2022/08/27 10:01:51;;;;;;;3.83;1.67;;;;;;;;;;5036123;28;20029;-69
2022/08/27 10:04:24;;;;;;;5.30;1.98;;;;;;;;;;5037187;28;20041;-69
2022/08/27 10:06:50;;;;;;;3.70;1.77;;;;;;;;;;5036128;28;20080;-69
2022/08/27 10:09:20;;;;;;;3.03;1.67;;;;;;;;;;5036504;28;20041;-69
2022/08/27 10:11:53;;;;;;;3.15;1.90;;;;;;;;;;5036862;28;20072;-69
2022/08/27 10:14:31;;;;;;;3.50;1.73;;;;;;;;;;5036296;28;20123;-69
2022/08/27 10:16:57;;;;;;;2.58;1.70;;;;;;;;;;5035835;28;20126;-69
2022/08/27 10:19:26;;;;;;;2.97;1.95;;;;;;;;;;5035715;28;20045;-69
2022/08/27 10:22:07;;;;;;;2.63;1.58;;;;;;;;;;5036646;28;20041;-69
2022/08/27 10:24:52;;;;;;;1.88;1.58;;;;;;;;;;5035846;28;20053;-69
2022/08/27 10:27:33;;;;;;;1.85;1.75;;;;;;;;;;5035820;28;20183;-69
2022/08/27 10:30:06;;;;;;;2.20;1.40;;;;;;;;;;5035636;28;20112;-69
2022/08/27 10:32:55;;;;;;;4.00;1.67;;;;;;;;;;5035835;28;20033;-69
2022/08/27 10:35:24;;;;;;;5.07;1.77;;;;;;;;;;5007253;28;20048;-69
2022/08/27 10:38:07;;;;;;;4.70;1.55;;;;;;;;;;5037058;28;20053;-69
2022/08/27 10:40:53;;;;;;;2.17;1.40;;;;;;;;;;5036374;28;20034;-69
2022/08/27 10:43:31;;;;;;;1.50;1.40;;;;;;;;;;5035829;28;20049;-69
2022/08/27 10:46:00;;;;;;;2.85;1.30;;;;;;;;;;5036124;28;20191;-69
2022/08/27 10:48:30;;;;;;;2.65;1.40;;;;;;;;;;5035623;28;20042;-69
2022/08/27 10:50:56;;;;;;;2.00;1.38;;;;;;;;;;5035522;28;20037;-69
2022/08/27 10:53:41;;;;;;;4.82;1.42;;;;;;;;;;5035437;28;20033;-69
2022/08/27 10:56:13;;;;;;;3.00;1.60;;;;;;;;;;5036184;28;20622;-69
2022/08/27 10:58:44;;;;;;;3.35;1.45;;;;;;;;;;5035120;28;20116;-69
2022/08/27 11:01:10;;;;;;;3.53;1.77;;;;;;;;;;5035688;28;20041;-69
2022/08/27 11:03:43;;;;;;;3.10;1.80;;;;;;;;;;5035235;28;20180;-69
2022/08/27 11:06:23;;;;;;;2.33;1.40;;;;;;;;;;5035534;28;20492;-69
2022/08/27 11:08:52;;;;;;;2.78;1.42;;;;;;;;;;5034617;28;20041;-69
2022/08/27 11:11:24;;;;;;;2.67;1.60;;;;;;;;;;5035938;28;20092;-69
2022/08/27 11:13:52;;;;;;;1.90;1.55;;;;;;;;;;5034632;28;20041;-69
2022/08/27 11:16:23;;;;;;;1.30;1.20;;;;;;;;;;5035083;28;20065;-69
2022/08/27 11:18:51;;;;;;;2.33;1.58;;;;;;;;;;5034713;28;20079;-69
2022/08/27 11:21:29;;;;;;;2.08;1.50;;;;;;;;;;5035231;28;20033;-69
2022/08/27 11:24:01;;;;;;;2.92;1.35;;;;;;;;;;5035460;28;20076;-69
2022/08/27 11:26:30;;;;;;;2.08;1.50;;;;;;;;;;5034962;28;20067;-69
2022/08/27 11:28:58;;;;;;;1.10;1.00;;;;;;;;;;5034768;28;20053;-69
2022/08/27 11:31:28;;;;;;;2.25;1.52;;;;;;;;;;5034061;28;20037;-69
2022/08/27 11:34:01;;;;;;;1.30;1.10;;;;;;;;;;5034891;28;20444;-69
2022/08/27 11:36:27;;;;;;;1.40;1.30;;;;;;;;;;5034867;28;20065;-69
2022/08/27 11:39:02;;;;;;;2.13;1.30;;;;;;;;;;5034410;28;20042;-69
2022/08/27 11:41:47;;;;;;;3.85;1.35;;;;;;;;;;5034075;28;20033;-69
2022/08/27 11:44:14;;;;;;;1.42;1.33;;;;;;;;;;5034545;28;20033;-69
2022/08/27 11:46:45;;;;;;;2.15;1.20;;;;;;;;;;5034497;28;20476;-69
2022/08/27 11:49:20;;;;;;;1.80;1.40;;;;;;;;;;5034728;28;20052;-69
2022/08/27 11:51:55;;;;;;;3.10;1.50;;;;;;;;;;5034905;28;20038;-69
2022/08/27 11:54:23;;;;;;;3.63;1.20;;;;;;;;;;5034991;28;20075;-69
2022/08/27 11:56:50;;;;;;;1.60;1.40;;;;;;;;;;5034390;28;20049;-69
2022/08/27 11:59:20;;;;;;;4.05;1.40;;;;;;;;;;5033844;28;20057;-69
2022/08/27 12:01:47;;;;;;;1.20;1.10;;;;;;;;;;5034334;28;20030;-69
2022/08/27 12:04:25;;;;;;;2.20;1.40;;;;;;;;;;5034087;28;20496;-69
2022/08/27 12:07:05;;;;;;;1.45;1.10;;;;;;;;;;5034478;28;20128;-69
2022/08/27 12:09:46;;;;;;;1.63;1.35;;;;;;;;;;5034120;28;20086;-69
2022/08/27 12:12:19;;;;;;;1.75;1.20;;;;;;;;;;5034709;28;20049;-69
2022/08/27 12:14:49;;;;;;;2.35;1.40;;;;;;;;;;5034297;28;20091;-69
2022/08/27 12:17:23;;;;;;;1.90;1.20;;;;;;;;;;5034381;28;20049;-69
2022/08/27 12:20:07;;;;;;;1.42;1.33;;;;;;;;;;5034617;28;20068;-69
2022/08/27 12:23:38;;;;;;;1.25;1.10;;;;;;;;;;5035013;28;20033;-69
2022/08/27 12:25:22;;;;;;;2.78;1.30;;;;;;;;;;5033628;28;20037;-69
2022/08/27 12:27:56;;;;;;;4.63;1.10;;;;;;;;;;5034504;28;20049;-69
2022/08/27 12:30:34;;;;;;;2.58;1.40;;;;;;;;;;5034202;28;20128;-69
2022/08/27 12:33:13;;;;;;;4.22;2.00;;;;;;;;;;5034870;28;20103;-69
2022/08/27 12:35:45;;;;;;;2.75;1.10;;;;;;;;;;5034123;28;20060;-69
2022/08/27 12:38:12;;;;;;;1.55;1.40;;;;;;;;;;5033983;28;20492;-69
2022/08/27 12:40:45;;;;;;;3.03;1.50;;;;;;;;;;5034041;28;20541;-69
2022/08/27 12:43:17;;;;;;;1.50;1.40;;;;;;;;;;5036328;28;20049;-69
2022/08/27 12:45:51;;;;;;;2.67;1.40;;;;;;;;;;5037520;28;20041;-69
2022/08/27 12:48:20;;;;;;;3.72;1.30;;;;;;;;;;5038456;28;20053;-69
2022/08/27 12:50:51;;;;;;;2.67;1.25;;;;;;;;;;5037766;28;20029;-69
2022/08/27 12:53:35;;;;;;;1.45;1.35;;;;;;;;;;5038109;28;20045;-69
2022/08/27 12:56:01;;;;;;;1.60;1.23;;;;;;;;;;5037702;28;20037;-69
2022/08/27 12:58:30;;;;;;;1.50;1.27;;;;;;;;;;5036815;28;20061;-69
2022/08/27 13:01:15;;;;;;;1.83;1.38;;;;;;;;;;5037566;28;20508;-69
2022/08/27 13:03:44;;;;;;;1.58;1.17;;;;;;;;;;5038031;28;20481;-69
2022/08/27 13:06:18;;;;;;;1.38;1.20;;;;;;;;;;5037424;28;20041;-69
2022/08/27 13:08:44;;;;;;;1.50;1.33;;;;;;;;;;5037134;28;20041;-69
2022/08/27 13:11:23;;;;;;;1.17;1.10;;;;;;;;;;5037197;28;20095;-69
2022/08/27 13:13:49;;;;;;;4.03;1.38;;;;;;;;;;5037420;28;20084;-69
2022/08/27 13:16:19;;;;;;;1.77;1.25;;;;;;;;;;5037338;28;20073;-69
2022/08/27 13:18:49;;;;;;;2.30;1.38;;;;;;;;;;5037648;28;20049;-69
2022/08/27 13:21:23;;;;;;;1.63;1.13;;;;;;;;;;5037330;28;20095;-69
2022/08/27 13:23:53;;;;;;;2.30;1.60;;;;;;;;;;5036960;28;20065;-69
2022/08/27 13:26:21;;;;;;;1.15;1.05;;;;;;;;;;5037093;28;20084;-69
2022/08/27 13:28:48;;;;;;;1.20;1.10;;;;;;;;;;5036933;28;20052;-69
2022/08/27 13:31:15;;;;;;;2.65;1.42;;;;;;;;;;5036694;28;20041;-69
2022/08/27 13:33:42;;;;;;;3.47;1.42;;;;;;;;;;5037317;28;20033;-69
2022/08/27 13:36:09;;;;;;;2.47;1.23;;;;;;;;;;5037242;28;20041;-69
2022/08/27 13:38:41;;;;;;;1.67;1.40;;;;;;;;;;5037401;28;20046;-69
2022/08/27 13:41:23;;;;;;;3.60;1.50;;;;;;;;;;5037689;28;20088;-69
2022/08/27 13:43:49;;;;;;;1.70;1.50;;;;;;;;;;5036697;28;20029;-69
2022/08/27 13:46:21;;;;;;;1.80;1.17;;;;;;;;;;5036905;28;20485;-69
2022/08/27 13:48:48;;;;;;;2.08;1.42;;;;;;;;;;5036147;28;20037;-69
2022/08/27 13:51:15;;;;;;;2.10;1.30;;;;;;;;;;5036668;28;20037;-69
2022/08/27 13:56:30;;;;;;;1.77;1.30;;;;;;;;;;5036127;28;20095;-69
2022/08/27 13:59:20;;;;;;;2.15;1.45;;;;;;;;;;5035999;28;20516;-69
2022/08/27 14:01:55;;;;;;;1.90;1.70;;;;;;;;;;5028250;28;20037;-69
2022/08/27 14:04:27;;;;;;;1.67;1.30;;;;;;;;;;5036460;28;20048;-69
2022/08/27 14:06:53;;;;;;;1.92;1.35;;;;;;;;;;5036092;28;20053;-69
2022/08/27 14:09:24;;;;;;;1.92;1.15;;;;;;;;;;5036057;28;20034;-69
2022/08/27 14:11:58;;;;;;;1.25;1.10;;;;;;;;;;5036993;28;20135;-69
2022/08/27 14:14:24;;;;;;;1.55;1.40;;;;;;;;;;5036387;28;20048;-69
2022/08/27 14:16:58;;;;;;;1.50;1.40;;;;;;;;;;5036568;28;20049;-69
2022/08/27 14:19:31;;;;;;;1.25;1.00;;;;;;;;;;5036235;28;20203;-69
2022/08/27 14:21:58;;;;;;;3.65;1.70;;;;;;;;;;5036926;28;20037;-69
2022/08/27 14:24:24;;;;;;;1.50;1.10;;;;;;;;;;5036172;28;20068;-69
2022/08/27 14:26:51;;;;;;;1.38;1.27;;;;;;;;;;5035519;28;20060;-69
2022/08/27 14:29:18;;;;;;;2.38;1.30;;;;;;;;;;5036214;28;20038;-69
2022/08/27 14:31:44;;;;;;;1.48;1.35;;;;;;;;;;5035657;28;20140;-69
2022/08/27 14:34:10;;;;;;;3.72;1.17;;;;;;;;;;5035874;28;20110;-69
2022/08/27 14:36:37;;;;;;;1.75;1.17;;;;;;;;;;5035875;28;20071;-69
2022/08/27 14:39:04;;;;;;;2.50;1.20;;;;;;;;;;5035517;28;20160;-69
2022/08/27 14:41:30;;;;;;;1.23;0.98;;;;;;;;;;5035761;28;20041;-69
2022/08/27 14:43:56;;;;;;;1.27;1.10;;;;;;;;;;5035598;28;20040;-69
2022/08/27 14:46:27;;;;;;;1.73;1.20;;;;;;;;;;5035473;28;20072;-69
2022/08/27 14:48:53;;;;;;;;;;;;;;;;;;5036694;28;20052;-69
2022/08/27 14:51:21;;;;;;;1.55;1.25;;;;;;;;;;5035305;28;19909;-69
2022/08/27 14:53:47;;;;;;;1.50;1.40;;;;;;;;;;5035384;28;20037;-69
2022/08/27 14:56:14;;;;;;;1.67;1.30;;;;;;;;;;5035412;28;20044;-69
2022/08/27 14:58:40;;;;;;;1.10;1.00;;;;;;;;;;5035055;28;20148;-69
2022/08/27 15:01:06;;;;;;;2.67;1.38;;;;;;;;;;5035338;28;20091;-69